Venus Seven — H9RN — position and weather

sailwx.info

Track history (hours):
 
Tides and Currents Weather Stations Pressure Air Temp Water Temp Dewpoint Dewpoint Depression Visibility Wind Speed Wind Dir Waves Ship Positions

Venus Seven

Last reported at 2017-Jan-17 06:12 UTC. Time now 2017-Jan-21 04:28 UTC.
Position N 22°44' E 120°09'.

Length 93 m; draft 4.4 m.

Type: Cargo ship. MMSI: 353405000.

Date/timePositionNaut miles runAvg speedWind from/ knotsBaromVisibWave heightAir tempDewpointWater temp
2017-Jan-17 06:12N 22°44' E 120°09'812.7
2017-Jan-17 05:33N 22°38' E 120°14'3 3.1
2017-Jan-17 04:32N 22°37' E 120°17'0 0.0
2017-Jan-17 03:32N 22°37' E 120°17'0 0.0
2017-Jan-17 02:32N 22°37' E 120°17'0 0.0
2017-Jan-17 01:32N 22°37' E 120°17'0 0.0
2017-Jan-17 00:32N 22°37' E 120°17'0 0.0
2017-Jan-16 23:32N 22°37' E 120°17'4 3.8
2017-Jan-16 22:33N 22°37' E 120°13'5 5.3
2017-Jan-16 21:33N 22°40' E 120°09'  
2017-Jan-12 10:07N 33°60' E 134°57'712.6
2017-Jan-12 09:33N 34°07' E 134°58'1312.8
2017-Jan-12 08:32N 34°19' E 134°60'1312.1
2017-Jan-12 07:28N 34°28' E 135°11'1010.9
2017-Jan-12 06:33N 34°36' E 135°19'5 5.0
2017-Jan-12 05:31N 34°38' E 135°25'0 0.0
2017-Jan-12 04:31N 34°38' E 135°25'0 0.0
2017-Jan-12 03:31N 34°38' E 135°25'0 0.0
2017-Jan-12 02:25N 34°38' E 135°25'0 0.0
2017-Jan-12 01:30N 34°38' E 135°25'0 0.0
2017-Jan-12 00:24N 34°38' E 135°25'0 0.0
2017-Jan-11 23:30N 34°38' E 135°25'0 0.0
2017-Jan-11 22:24N 34°38' E 135°25'0 0.0
2017-Jan-11 21:30N 34°38' E 135°25'0 0.0
2017-Jan-11 20:30N 34°38' E 135°25'0 0.0
2017-Jan-11 19:30N 34°38' E 135°25'0 0.0
2017-Jan-11 18:30N 34°38' E 135°25'0 0.0
2017-Jan-11 17:30N 34°38' E 135°25'0 0.0
2017-Jan-11 16:30N 34°38' E 135°25'0 0.0
2017-Jan-11 15:30N 34°38' E 135°25'0 0.0
2017-Jan-11 14:24N 34°38' E 135°25'0 0.0
2017-Jan-11 13:30N 34°38' E 135°25'0 0.0
2017-Jan-11 12:30N 34°38' E 135°25'0 0.0
2017-Jan-11 11:30N 34°38' E 135°25'0 0.0
2017-Jan-11 10:30N 34°38' E 135°25'0 0.0
2017-Jan-11 08:30N 34°38' E 135°25'0 0.0
2017-Jan-11 07:30N 34°38' E 135°25'0 0.0
2017-Jan-11 06:30N 34°38' E 135°25'0 0.0
2017-Jan-11 05:30N 34°38' E 135°25'0 0.0
2017-Jan-11 04:29N 34°38' E 135°25'0 0.0
2017-Jan-11 03:29N 34°38' E 135°25'0 0.0
2017-Jan-11 02:29N 34°38' E 135°25'0 0.0
2017-Jan-11 01:29N 34°38' E 135°25'0 0.0
2017-Jan-11 00:29N 34°38' E 135°25'0 0.0
2017-Jan-10 23:29N 34°38' E 135°25'0 0.0
2017-Jan-10 22:29N 34°38' E 135°25'0 0.0
2017-Jan-10 21:29N 34°38' E 135°25'0 0.0
2017-Jan-10 20:29N 34°38' E 135°25'0 0.0
2017-Jan-10 19:29N 34°38' E 135°25'0 0.0
2017-Jan-10 18:29N 34°38' E 135°25'0 0.0
2017-Jan-10 17:29N 34°38' E 135°25'0 0.0
2017-Jan-10 16:29N 34°38' E 135°25'0 0.0
2017-Jan-10 15:29N 34°38' E 135°25'0 0.0
2017-Jan-10 14:29N 34°38' E 135°25'0 0.0
2017-Jan-10 13:29N 34°38' E 135°25'0 0.0
2017-Jan-10 12:29N 34°38' E 135°25'0 0.0
2017-Jan-10 11:29N 34°38' E 135°25'0 0.0
2017-Jan-10 10:17N 34°38' E 135°25'0 0.0
2017-Jan-10 09:23N 34°38' E 135°25'0 0.0
2017-Jan-10 08:29N 34°38' E 135°25'0 0.0
2017-Jan-10 07:29N 34°38' E 135°25'0 0.0
2017-Jan-10 06:29N 34°38' E 135°25'0 0.0
2017-Jan-10 05:29N 34°38' E 135°25'0 0.0
2017-Jan-10 04:17N 34°38' E 135°25'0 0.0
2017-Jan-10 03:29N 34°38' E 135°25'0 0.0
2017-Jan-10 01:29N 34°38' E 135°25'0 0.0
2017-Jan-10 00:29N 34°38' E 135°25'0 0.0
2017-Jan-09 23:29N 34°38' E 135°25'0 0.0
2017-Jan-09 22:29N 34°38' E 135°25'1 1.6
2017-Jan-09 21:33N 34°38' E 135°23'1 0.8
2017-Jan-09 20:32N 34°37' E 135°23'0 0.0
2017-Jan-09 19:32N 34°37' E 135°23'0 0.0
2017-Jan-09 18:26N 34°37' E 135°23'0 0.0
2017-Jan-09 17:20N 34°37' E 135°23'0 0.0
2017-Jan-09 16:32N 34°37' E 135°23'6 5.8
2017-Jan-09 15:33N 34°35' E 135°17'1414.5
2017-Jan-09 14:33N 34°37' E 134°59'  
Track history (hours):
 
Tides and Currents Weather Stations Pressure Air Temp Water Temp Dewpoint Dewpoint Depression Visibility Wind Speed Wind Dir Waves Ship Positions

Venus Seven

Last reported at 2017-Jan-17 06:12 UTC. Time now 2017-Jan-21 04:28 UTC.
Position N 22°44' E 120°09'.

Length 93 m; draft 4.4 m.

Type: Cargo ship. MMSI: 353405000.

Date/timePositionNaut miles runAvg speedWind from/ knotsBaromVisibWave heightAir tempDewpointWater temp
2017-Jan-17 06:12N 22°44' E 120°09'812.7
2017-Jan-17 05:33N 22°38' E 120°14'3 3.1
2017-Jan-17 04:32N 22°37' E 120°17'0 0.0
2017-Jan-17 03:32N 22°37' E 120°17'0 0.0
2017-Jan-17 02:32N 22°37' E 120°17'0 0.0
2017-Jan-17 01:32N 22°37' E 120°17'0 0.0
2017-Jan-17 00:32N 22°37' E 120°17'0 0.0
2017-Jan-16 23:32N 22°37' E 120°17'4 3.8
2017-Jan-16 22:33N 22°37' E 120°13'5 5.3
2017-Jan-16 21:33N 22°40' E 120°09'  
2017-Jan-12 10:07N 33°60' E 134°57'712.6
2017-Jan-12 09:33N 34°07' E 134°58'1312.8
2017-Jan-12 08:32N 34°19' E 134°60'1312.1
2017-Jan-12 07:28N 34°28' E 135°11'1010.9
2017-Jan-12 06:33N 34°36' E 135°19'5 5.0
2017-Jan-12 05:31N 34°38' E 135°25'0 0.0
2017-Jan-12 04:31N 34°38' E 135°25'0 0.0
2017-Jan-12 03:31N 34°38' E 135°25'0 0.0
2017-Jan-12 02:25N 34°38' E 135°25'0 0.0
2017-Jan-12 01:30N 34°38' E 135°25'0 0.0
2017-Jan-12 00:24N 34°38' E 135°25'0 0.0
2017-Jan-11 23:30N 34°38' E 135°25'0 0.0
2017-Jan-11 22:24N 34°38' E 135°25'0 0.0
2017-Jan-11 21:30N 34°38' E 135°25'0 0.0
2017-Jan-11 20:30N 34°38' E 135°25'0 0.0
2017-Jan-11 19:30N 34°38' E 135°25'0 0.0
2017-Jan-11 18:30N 34°38' E 135°25'0 0.0
2017-Jan-11 17:30N 34°38' E 135°25'0 0.0
2017-Jan-11 16:30N 34°38' E 135°25'0 0.0
2017-Jan-11 15:30N 34°38' E 135°25'0 0.0
2017-Jan-11 14:24N 34°38' E 135°25'0 0.0
2017-Jan-11 13:30N 34°38' E 135°25'0 0.0
2017-Jan-11 12:30N 34°38' E 135°25'0 0.0
2017-Jan-11 11:30N 34°38' E 135°25'0 0.0
2017-Jan-11 10:30N 34°38' E 135°25'0 0.0
2017-Jan-11 08:30N 34°38' E 135°25'0 0.0
2017-Jan-11 07:30N 34°38' E 135°25'0 0.0
2017-Jan-11 06:30N 34°38' E 135°25'0 0.0
2017-Jan-11 05:30N 34°38' E 135°25'0 0.0
2017-Jan-11 04:29N 34°38' E 135°25'0 0.0
2017-Jan-11 03:29N 34°38' E 135°25'0 0.0
2017-Jan-11 02:29N 34°38' E 135°25'0 0.0
2017-Jan-11 01:29N 34°38' E 135°25'0 0.0
2017-Jan-11 00:29N 34°38' E 135°25'0 0.0
2017-Jan-10 23:29N 34°38' E 135°25'0 0.0
2017-Jan-10 22:29N 34°38' E 135°25'0 0.0
2017-Jan-10 21:29N 34°38' E 135°25'0 0.0
2017-Jan-10 20:29N 34°38' E 135°25'0 0.0
2017-Jan-10 19:29N 34°38' E 135°25'0 0.0
2017-Jan-10 18:29N 34°38' E 135°25'0 0.0
2017-Jan-10 17:29N 34°38' E 135°25'0 0.0
2017-Jan-10 16:29N 34°38' E 135°25'0 0.0
2017-Jan-10 15:29N 34°38' E 135°25'0 0.0
2017-Jan-10 14:29N 34°38' E 135°25'0 0.0
2017-Jan-10 13:29N 34°38' E 135°25'0 0.0
2017-Jan-10 12:29N 34°38' E 135°25'0 0.0
2017-Jan-10 11:29N 34°38' E 135°25'0 0.0
2017-Jan-10 10:17N 34°38' E 135°25'0 0.0
2017-Jan-10 09:23N 34°38' E 135°25'0 0.0
2017-Jan-10 08:29N 34°38' E 135°25'0 0.0
2017-Jan-10 07:29N 34°38' E 135°25'0 0.0
2017-Jan-10 06:29N 34°38' E 135°25'0 0.0
2017-Jan-10 05:29N 34°38' E 135°25'0 0.0
2017-Jan-10 04:17N 34°38' E 135°25'0 0.0
2017-Jan-10 03:29N 34°38' E 135°25'0 0.0
2017-Jan-10 01:29N 34°38' E 135°25'0 0.0
2017-Jan-10 00:29N 34°38' E 135°25'0 0.0
2017-Jan-09 23:29N 34°38' E 135°25'0 0.0
2017-Jan-09 22:29N 34°38' E 135°25'1 1.6
2017-Jan-09 21:33N 34°38' E 135°23'1 0.8
2017-Jan-09 20:32N 34°37' E 135°23'0 0.0
2017-Jan-09 19:32N 34°37' E 135°23'0 0.0
2017-Jan-09 18:26N 34°37' E 135°23'0 0.0
2017-Jan-09 17:20N 34°37' E 135°23'0 0.0
2017-Jan-09 16:32N 34°37' E 135°23'6 5.8
2017-Jan-09 15:33N 34°35' E 135°17'1414.5
2017-Jan-09 14:33N 34°37' E 134°59'  

Dump ship's entire track history